sensor_id;sensor_type;location;lat;lon;timestamp;temperature;humidity
18073;DHT22;9161;47.348;9.648;2022-10-30T00:04:00;11.00;99.90
18073;DHT22;9161;47.348;9.648;2022-10-30T00:08:45;11.00;99.90
18073;DHT22;9161;47.348;9.648;2022-10-30T00:13:29;10.90;99.90
18073;DHT22;9161;47.348;9.648;2022-10-30T00:18:13;10.90;99.90
18073;DHT22;9161;47.348;9.648;2022-10-30T00:22:56;10.90;99.90
18073;DHT22;9161;47.348;9.648;2022-10-30T00:27:42;10.90;99.90
18073;DHT22;9161;47.348;9.648;2022-10-30T00:32:26;10.90;99.90
18073;DHT22;9161;47.348;9.648;2022-10-30T00:37:10;10.90;99.90
18073;DHT22;9161;47.348;9.648;2022-10-30T00:41:54;10.90;99.90
18073;DHT22;9161;47.348;9.648;2022-10-30T00:46:39;10.90;99.90
18073;DHT22;9161;47.348;9.648;2022-10-30T00:51:23;10.90;99.90
18073;DHT22;9161;47.348;9.648;2022-10-30T00:56:08;10.80;99.90
18073;DHT22;9161;47.348;9.648;2022-10-30T01:00:56;10.80;99.90
18073;DHT22;9161;47.348;9.648;2022-10-30T01:05:43;10.80;99.90
18073;DHT22;9161;47.348;9.648;2022-10-30T01:10:28;10.80;99.90
18073;DHT22;9161;47.348;9.648;2022-10-30T01:15:12;10.80;99.90
18073;DHT22;9161;47.348;9.648;2022-10-30T01:20:04;10.60;99.90
18073;DHT22;9161;47.348;9.648;2022-10-30T01:25:01;10.60;99.90
18073;DHT22;9161;47.348;9.648;2022-10-30T01:29:54;10.60;99.90
18073;DHT22;9161;47.348;9.648;2022-10-30T01:34:43;10.60;99.90
18073;DHT22;9161;47.348;9.648;2022-10-30T01:39:32;10.60;99.90
18073;DHT22;9161;47.348;9.648;2022-10-30T01:44:19;10.60;99.90
18073;DHT22;9161;47.348;9.648;2022-10-30T01:54:23;10.50;99.90
18073;DHT22;9161;47.348;9.648;2022-10-30T01:59:14;10.40;99.90
18073;DHT22;9161;47.348;9.648;2022-10-30T02:04:01;10.40;99.90
18073;DHT22;9161;47.348;9.648;2022-10-30T02:08:45;10.40;99.90
18073;DHT22;9161;47.348;9.648;2022-10-30T02:13:29;10.30;99.90
18073;DHT22;9161;47.348;9.648;2022-10-30T02:18:13;10.50;99.90
18073;DHT22;9161;47.348;9.648;2022-10-30T02:22:58;10.40;99.90
18073;DHT22;9161;47.348;9.648;2022-10-30T02:27:43;10.30;99.90
18073;DHT22;9161;47.348;9.648;2022-10-30T02:32:26;10.40;99.90
18073;DHT22;9161;47.348;9.648;2022-10-30T02:37:10;10.30;99.90
18073;DHT22;9161;47.348;9.648;2022-10-30T02:41:55;10.20;99.90
18073;DHT22;9161;47.348;9.648;2022-10-30T02:46:38;10.20;99.90
18073;DHT22;9161;47.348;9.648;2022-10-30T02:51:22;10.00;99.90
18073;DHT22;9161;47.348;9.648;2022-10-30T02:56:10;10.00;99.90
18073;DHT22;9161;47.348;9.648;2022-10-30T03:00:55;10.00;99.90
18073;DHT22;9161;47.348;9.648;2022-10-30T03:05:39;10.00;99.90
18073;DHT22;9161;47.348;9.648;2022-10-30T03:10:22;10.00;99.90
18073;DHT22;9161;47.348;9.648;2022-10-30T03:15:07;10.10;99.90
18073;DHT22;9161;47.348;9.648;2022-10-30T03:19:51;10.10;99.90
18073;DHT22;9161;47.348;9.648;2022-10-30T03:24:35;10.20;99.90
18073;DHT22;9161;47.348;9.648;2022-10-30T03:29:19;10.40;99.90
18073;DHT22;9161;47.348;9.648;2022-10-30T03:34:02;10.20;99.90
18073;DHT22;9161;47.348;9.648;2022-10-30T03:38:47;10.30;99.90
18073;DHT22;9161;47.348;9.648;2022-10-30T03:43:31;10.30;99.90
18073;DHT22;9161;47.348;9.648;2022-10-30T03:48:15;10.40;99.90
18073;DHT22;9161;47.348;9.648;2022-10-30T03:52:58;10.40;99.90
18073;DHT22;9161;47.348;9.648;2022-10-30T03:57:43;10.50;99.90
18073;DHT22;9161;47.348;9.648;2022-10-30T04:02:27;10.40;99.90
18073;DHT22;9161;47.348;9.648;2022-10-30T04:07:10;10.40;99.90
18073;DHT22;9161;47.348;9.648;2022-10-30T04:11:54;10.50;99.90
18073;DHT22;9161;47.348;9.648;2022-10-30T04:16:39;10.50;99.90
18073;DHT22;9161;47.348;9.648;2022-10-30T04:21:22;10.60;99.90
18073;DHT22;9161;47.348;9.648;2022-10-30T04:26:05;10.50;99.90
18073;DHT22;9161;47.348;9.648;2022-10-30T04:30:49;10.40;99.90
18073;DHT22;9161;47.348;9.648;2022-10-30T04:35:35;10.40;99.90
18073;DHT22;9161;47.348;9.648;2022-10-30T04:40:19;10.30;99.90
18073;DHT22;9161;47.348;9.648;2022-10-30T04:45:03;10.30;99.90
18073;DHT22;9161;47.348;9.648;2022-10-30T04:49:54;10.20;99.90
18073;DHT22;9161;47.348;9.648;2022-10-30T04:54:39;10.10;99.90
18073;DHT22;9161;47.348;9.648;2022-10-30T04:59:23;10.20;99.90
18073;DHT22;9161;47.348;9.648;2022-10-30T05:04:06;10.10;99.90
18073;DHT22;9161;47.348;9.648;2022-10-30T05:08:50;10.00;99.90
18073;DHT22;9161;47.348;9.648;2022-10-30T05:13:35;10.00;99.90
18073;DHT22;9161;47.348;9.648;2022-10-30T05:18:18;9.90;99.90
18073;DHT22;9161;47.348;9.648;2022-10-30T05:23:02;9.90;99.90
18073;DHT22;9161;47.348;9.648;2022-10-30T05:27:46;9.90;99.90
18073;DHT22;9161;47.348;9.648;2022-10-30T05:32:31;9.80;99.90
18073;DHT22;9161;47.348;9.648;2022-10-30T05:37:14;9.70;99.90
18073;DHT22;9161;47.348;9.648;2022-10-30T05:41:58;9.80;99.90
18073;DHT22;9161;47.348;9.648;2022-10-30T05:46:41;9.80;99.90
18073;DHT22;9161;47.348;9.648;2022-10-30T05:51:26;10.00;99.90
18073;DHT22;9161;47.348;9.648;2022-10-30T05:56:10;10.10;99.90
18073;DHT22;9161;47.348;9.648;2022-10-30T06:00:53;10.00;99.90
18073;DHT22;9161;47.348;9.648;2022-10-30T06:05:37;9.80;99.90
18073;DHT22;9161;47.348;9.648;2022-10-30T06:10:23;9.80;99.90
18073;DHT22;9161;47.348;9.648;2022-10-30T06:15:07;9.70;99.90
18073;DHT22;9161;47.348;9.648;2022-10-30T06:19:51;9.70;99.90
18073;DHT22;9161;47.348;9.648;2022-10-30T06:24:35;10.00;99.90
18073;DHT22;9161;47.348;9.648;2022-10-30T06:29:20;10.20;99.90
18073;DHT22;9161;47.348;9.648;2022-10-30T06:34:04;10.30;99.90
18073;DHT22;9161;47.348;9.648;2022-10-30T06:38:47;10.30;99.90
18073;DHT22;9161;47.348;9.648;2022-10-30T06:43:31;10.30;99.90
18073;DHT22;9161;47.348;9.648;2022-10-30T06:48:16;10.30;99.90
18073;DHT22;9161;47.348;9.648;2022-10-30T06:52:59;10.30;99.90
18073;DHT22;9161;47.348;9.648;2022-10-30T06:57:43;10.50;99.90
18073;DHT22;9161;47.348;9.648;2022-10-30T07:02:27;10.50;99.90
18073;DHT22;9161;47.348;9.648;2022-10-30T07:07:12;10.60;99.90
18073;DHT22;9161;47.348;9.648;2022-10-30T07:11:55;10.70;99.90
18073;DHT22;9161;47.348;9.648;2022-10-30T07:16:46;10.90;99.90
18073;DHT22;9161;47.348;9.648;2022-10-30T07:21:30;10.90;99.90
18073;DHT22;9161;47.348;9.648;2022-10-30T07:26:15;11.20;99.90
18073;DHT22;9161;47.348;9.648;2022-10-30T07:30:58;11.40;99.90
18073;DHT22;9161;47.348;9.648;2022-10-30T07:35:42;11.60;99.90
18073;DHT22;9161;47.348;9.648;2022-10-30T07:40:26;12.10;99.90
18073;DHT22;9161;47.348;9.648;2022-10-30T07:45:11;12.70;99.90
18073;DHT22;9161;47.348;9.648;2022-10-30T07:49:54;13.00;99.90
18073;DHT22;9161;47.348;9.648;2022-10-30T07:54:38;13.40;99.90
18073;DHT22;9161;47.348;9.648;2022-10-30T07:59:22;13.70;99.90
18073;DHT22;9161;47.348;9.648;2022-10-30T08:04:07;14.20;99.90
18073;DHT22;9161;47.348;9.648;2022-10-30T08:08:52;14.90;99.90
18073;DHT22;9161;47.348;9.648;2022-10-30T08:13:35;15.50;99.90
18073;DHT22;9161;47.348;9.648;2022-10-30T08:18:19;15.70;99.90
18073;DHT22;9161;47.348;9.648;2022-10-30T08:23:04;15.70;99.90
18073;DHT22;9161;47.348;9.648;2022-10-30T08:27:52;15.90;99.90
18073;DHT22;9161;47.348;9.648;2022-10-30T08:32:36;16.00;99.90
18073;DHT22;9161;47.348;9.648;2022-10-30T08:37:19;16.20;99.90
18073;DHT22;9161;47.348;9.648;2022-10-30T08:42:04;16.80;99.90
18073;DHT22;9161;47.348;9.648;2022-10-30T08:46:48;17.40;99.90
18073;DHT22;9161;47.348;9.648;2022-10-30T08:51:32;17.60;99.90
18073;DHT22;9161;47.348;9.648;2022-10-30T08:56:16;18.00;99.90
18073;DHT22;9161;47.348;9.648;2022-10-30T09:01:01;18.60;99.90
18073;DHT22;9161;47.348;9.648;2022-10-30T09:05:44;18.80;99.90
18073;DHT22;9161;47.348;9.648;2022-10-30T09:10:28;19.00;99.90
18073;DHT22;9161;47.348;9.648;2022-10-30T09:15:13;19.00;99.90
18073;DHT22;9161;47.348;9.648;2022-10-30T09:19:58;19.00;99.90
18073;DHT22;9161;47.348;9.648;2022-10-30T09:24:41;18.40;99.90
18073;DHT22;9161;47.348;9.648;2022-10-30T09:29:25;18.30;99.90
18073;DHT22;9161;47.348;9.648;2022-10-30T09:34:09;18.30;99.90
18073;DHT22;9161;47.348;9.648;2022-10-30T09:38:54;18.20;99.90
18073;DHT22;9161;47.348;9.648;2022-10-30T09:43:45;18.10;99.90
18073;DHT22;9161;47.348;9.648;2022-10-30T09:54:09;18.10;99.90
18073;DHT22;9161;47.348;9.648;2022-10-30T09:59:03;18.00;99.90
18073;DHT22;9161;47.348;9.648;2022-10-30T10:03:58;18.10;99.90
18073;DHT22;9161;47.348;9.648;2022-10-30T10:08:48;18.10;99.90
18073;DHT22;9161;47.348;9.648;2022-10-30T10:13:37;18.40;99.90
18073;DHT22;9161;47.348;9.648;2022-10-30T10:18:27;18.70;99.90
18073;DHT22;9161;47.348;9.648;2022-10-30T10:23:18;19.00;99.90
18073;DHT22;9161;47.348;9.648;2022-10-30T10:28:10;19.30;99.90
18073;DHT22;9161;47.348;9.648;2022-10-30T10:33:13;19.70;99.90
18073;DHT22;9161;47.348;9.648;2022-10-30T10:38:01;20.20;99.90
18073;DHT22;9161;47.348;9.648;2022-10-30T10:42:51;20.40;99.90
18073;DHT22;9161;47.348;9.648;2022-10-30T10:52:54;19.60;99.90
18073;DHT22;9161;47.348;9.648;2022-10-30T10:57:41;19.30;99.90
18073;DHT22;9161;47.348;9.648;2022-10-30T11:02:32;19.10;99.90
18073;DHT22;9161;47.348;9.648;2022-10-30T11:07:20;19.20;99.90
18073;DHT22;9161;47.348;9.648;2022-10-30T11:12:06;18.80;99.90
18073;DHT22;9161;47.348;9.648;2022-10-30T11:16:58;18.80;99.90
18073;DHT22;9161;47.348;9.648;2022-10-30T11:21:47;18.50;99.90
18073;DHT22;9161;47.348;9.648;2022-10-30T11:26:33;18.80;99.90
18073;DHT22;9161;47.348;9.648;2022-10-30T11:31:19;18.90;99.90
18073;DHT22;9161;47.348;9.648;2022-10-30T11:36:08;18.70;99.90
18073;DHT22;9161;47.348;9.648;2022-10-30T11:40:56;19.00;99.90
18073;DHT22;9161;47.348;9.648;2022-10-30T11:45:42;19.20;99.90
18073;DHT22;9161;47.348;9.648;2022-10-30T11:50:28;19.40;99.90
18073;DHT22;9161;47.348;9.648;2022-10-30T11:55:17;19.80;99.90
18073;DHT22;9161;47.348;9.648;2022-10-30T12:00:16;20.20;99.90
18073;DHT22;9161;47.348;9.648;2022-10-30T12:05:01;20.70;99.90
18073;DHT22;9161;47.348;9.648;2022-10-30T12:09:46;20.80;99.90
18073;DHT22;9161;47.348;9.648;2022-10-30T12:14:30;22.50;99.90
18073;DHT22;9161;47.348;9.648;2022-10-30T12:19:16;24.20;99.90
18073;DHT22;9161;47.348;9.648;2022-10-30T12:24:02;25.70;99.90
18073;DHT22;9161;47.348;9.648;2022-10-30T12:28:54;27.20;99.90
18073;DHT22;9161;47.348;9.648;2022-10-30T12:33:42;27.10;99.90
18073;DHT22;9161;47.348;9.648;2022-10-30T12:38:31;26.80;99.90
18073;DHT22;9161;47.348;9.648;2022-10-30T12:43:19;27.30;99.90
18073;DHT22;9161;47.348;9.648;2022-10-30T12:48:15;26.60;99.90
18073;DHT22;9161;47.348;9.648;2022-10-30T12:53:06;26.20;99.90
18073;DHT22;9161;47.348;9.648;2022-10-30T12:57:57;26.90;99.90
18073;DHT22;9161;47.348;9.648;2022-10-30T13:02:52;26.50;99.90
18073;DHT22;9161;47.348;9.648;2022-10-30T13:07:46;24.30;99.90
18073;DHT22;9161;47.348;9.648;2022-10-30T13:12:32;24.70;99.90
18073;DHT22;9161;47.348;9.648;2022-10-30T13:17:17;25.50;99.90
18073;DHT22;9161;47.348;9.648;2022-10-30T13:22:06;26.50;99.90
18073;DHT22;9161;47.348;9.648;2022-10-30T13:26:55;26.60;99.90
18073;DHT22;9161;47.348;9.648;2022-10-30T13:31:55;25.60;99.90
18073;DHT22;9161;47.348;9.648;2022-10-30T13:36:47;23.60;99.90
18073;DHT22;9161;47.348;9.648;2022-10-30T13:41:38;22.70;99.90
18073;DHT22;9161;47.348;9.648;2022-10-30T13:46:45;21.70;99.90
18073;DHT22;9161;47.348;9.648;2022-10-30T13:51:36;20.80;99.90
18073;DHT22;9161;47.348;9.648;2022-10-30T13:56:21;21.00;99.90
18073;DHT22;9161;47.348;9.648;2022-10-30T14:01:08;20.70;99.90
18073;DHT22;9161;47.348;9.648;2022-10-30T14:06:03;20.70;99.90
18073;DHT22;9161;47.348;9.648;2022-10-30T14:10:53;21.50;99.90
18073;DHT22;9161;47.348;9.648;2022-10-30T14:15:43;21.30;99.90
18073;DHT22;9161;47.348;9.648;2022-10-30T14:20:27;21.00;99.90
18073;DHT22;9161;47.348;9.648;2022-10-30T14:25:15;20.30;99.90
18073;DHT22;9161;47.348;9.648;2022-10-30T14:30:00;19.90;99.90
18073;DHT22;9161;47.348;9.648;2022-10-30T14:34:55;19.60;99.90
18073;DHT22;9161;47.348;9.648;2022-10-30T14:39:40;19.40;99.90
18073;DHT22;9161;47.348;9.648;2022-10-30T14:44:42;18.60;99.90
18073;DHT22;9161;47.348;9.648;2022-10-30T14:49:45;17.90;99.90
18073;DHT22;9161;47.348;9.648;2022-10-30T14:54:36;17.80;99.90
18073;DHT22;9161;47.348;9.648;2022-10-30T14:59:25;17.20;99.90
18073;DHT22;9161;47.348;9.648;2022-10-30T15:04:21;16.80;99.90
18073;DHT22;9161;47.348;9.648;2022-10-30T15:09:39;16.90;99.90
18073;DHT22;9161;47.348;9.648;2022-10-30T15:14:28;16.80;99.90
18073;DHT22;9161;47.348;9.648;2022-10-30T15:19:34;16.70;99.90
18073;DHT22;9161;47.348;9.648;2022-10-30T15:24:20;16.50;99.90
18073;DHT22;9161;47.348;9.648;2022-10-30T15:29:12;16.40;99.90
18073;DHT22;9161;47.348;9.648;2022-10-30T15:33:59;16.20;99.90
18073;DHT22;9161;47.348;9.648;2022-10-30T15:38:44;16.00;99.90
18073;DHT22;9161;47.348;9.648;2022-10-30T15:43:45;15.80;99.90
18073;DHT22;9161;47.348;9.648;2022-10-30T15:48:31;15.50;99.90
18073;DHT22;9161;47.348;9.648;2022-10-30T15:53:17;15.20;99.90
18073;DHT22;9161;47.348;9.648;2022-10-30T15:58:04;15.00;99.90
18073;DHT22;9161;47.348;9.648;2022-10-30T16:02:58;14.70;99.90
18073;DHT22;9161;47.348;9.648;2022-10-30T16:07:44;14.50;99.90
18073;DHT22;9161;47.348;9.648;2022-10-30T16:12:30;14.40;99.90
18073;DHT22;9161;47.348;9.648;2022-10-30T16:17:17;14.20;99.90
18073;DHT22;9161;47.348;9.648;2022-10-30T16:22:01;14.10;99.90
18073;DHT22;9161;47.348;9.648;2022-10-30T16:26:45;14.00;99.90
18073;DHT22;9161;47.348;9.648;2022-10-30T16:31:44;13.80;99.90
18073;DHT22;9161;47.348;9.648;2022-10-30T16:36:32;13.70;99.90
18073;DHT22;9161;47.348;9.648;2022-10-30T16:41:17;13.50;99.90
18073;DHT22;9161;47.348;9.648;2022-10-30T16:46:33;13.40;99.90
18073;DHT22;9161;47.348;9.648;2022-10-30T16:51:18;13.40;99.90
18073;DHT22;9161;47.348;9.648;2022-10-30T16:56:16;13.30;99.90
18073;DHT22;9161;47.348;9.648;2022-10-30T17:01:03;13.20;99.90
18073;DHT22;9161;47.348;9.648;2022-10-30T17:05:56;13.10;99.90
18073;DHT22;9161;47.348;9.648;2022-10-30T17:10:42;12.90;99.90
18073;DHT22;9161;47.348;9.648;2022-10-30T17:15:31;12.80;99.90
18073;DHT22;9161;47.348;9.648;2022-10-30T17:20:25;12.70;99.90
18073;DHT22;9161;47.348;9.648;2022-10-30T17:25:23;12.60;99.90
18073;DHT22;9161;47.348;9.648;2022-10-30T17:30:36;12.50;99.90
18073;DHT22;9161;47.348;9.648;2022-10-30T17:35:21;12.40;99.90
18073;DHT22;9161;47.348;9.648;2022-10-30T17:40:06;12.40;99.90
18073;DHT22;9161;47.348;9.648;2022-10-30T17:44:50;12.60;99.90
18073;DHT22;9161;47.348;9.648;2022-10-30T17:49:35;12.60;99.90
18073;DHT22;9161;47.348;9.648;2022-10-30T17:54:20;12.50;99.90
18073;DHT22;9161;47.348;9.648;2022-10-30T17:59:04;12.40;99.90
18073;DHT22;9161;47.348;9.648;2022-10-30T18:03:51;12.40;99.90
18073;DHT22;9161;47.348;9.648;2022-10-30T18:08:39;12.40;99.90
18073;DHT22;9161;47.348;9.648;2022-10-30T18:13:29;12.30;99.90
18073;DHT22;9161;47.348;9.648;2022-10-30T18:18:13;12.20;99.90
18073;DHT22;9161;47.348;9.648;2022-10-30T18:22:57;12.10;99.90
18073;DHT22;9161;47.348;9.648;2022-10-30T18:27:43;12.00;99.90
18073;DHT22;9161;47.348;9.648;2022-10-30T18:32:27;12.10;99.90
18073;DHT22;9161;47.348;9.648;2022-10-30T18:37:12;12.00;99.90
18073;DHT22;9161;47.348;9.648;2022-10-30T18:41:58;11.80;99.90
18073;DHT22;9161;47.348;9.648;2022-10-30T18:46:45;11.60;99.90
18073;DHT22;9161;47.348;9.648;2022-10-30T18:51:31;11.50;99.90
18073;DHT22;9161;47.348;9.648;2022-10-30T18:56:17;11.40;99.90
18073;DHT22;9161;47.348;9.648;2022-10-30T19:01:05;11.30;99.90
18073;DHT22;9161;47.348;9.648;2022-10-30T19:05:55;11.30;99.90
18073;DHT22;9161;47.348;9.648;2022-10-30T19:10:43;11.30;99.90
18073;DHT22;9161;47.348;9.648;2022-10-30T19:15:31;11.40;99.90
18073;DHT22;9161;47.348;9.648;2022-10-30T19:20:18;11.60;99.90
18073;DHT22;9161;47.348;9.648;2022-10-30T19:25:22;11.90;99.90
18073;DHT22;9161;47.348;9.648;2022-10-30T19:30:08;12.10;99.90
18073;DHT22;9161;47.348;9.648;2022-10-30T19:34:53;12.00;99.90
18073;DHT22;9161;47.348;9.648;2022-10-30T19:39:38;11.90;99.90
18073;DHT22;9161;47.348;9.648;2022-10-30T19:44:23;12.00;99.90
18073;DHT22;9161;47.348;9.648;2022-10-30T19:49:16;11.80;99.90
18073;DHT22;9161;47.348;9.648;2022-10-30T19:54:01;11.60;99.90
18073;DHT22;9161;47.348;9.648;2022-10-30T19:58:46;11.40;99.90
18073;DHT22;9161;47.348;9.648;2022-10-30T20:03:33;11.10;99.90
18073;DHT22;9161;47.348;9.648;2022-10-30T20:08:19;10.80;99.90
18073;DHT22;9161;47.348;9.648;2022-10-30T20:13:06;10.70;99.90
18073;DHT22;9161;47.348;9.648;2022-10-30T20:17:53;10.60;99.90
18073;DHT22;9161;47.348;9.648;2022-10-30T20:22:39;10.60;99.90
18073;DHT22;9161;47.348;9.648;2022-10-30T20:27:24;10.50;99.90
18073;DHT22;9161;47.348;9.648;2022-10-30T20:32:09;10.50;99.90
18073;DHT22;9161;47.348;9.648;2022-10-30T20:36:53;10.50;99.90
18073;DHT22;9161;47.348;9.648;2022-10-30T20:41:40;10.60;99.90
18073;DHT22;9161;47.348;9.648;2022-10-30T20:46:25;10.80;99.90
18073;DHT22;9161;47.348;9.648;2022-10-30T20:51:12;10.70;99.90
18073;DHT22;9161;47.348;9.648;2022-10-30T20:55:56;10.40;99.90
18073;DHT22;9161;47.348;9.648;2022-10-30T21:00:43;10.30;99.90
18073;DHT22;9161;47.348;9.648;2022-10-30T21:05:27;10.20;99.90
18073;DHT22;9161;47.348;9.648;2022-10-30T21:10:24;10.00;99.90
18073;DHT22;9161;47.348;9.648;2022-10-30T21:15:11;10.00;99.90
18073;DHT22;9161;47.348;9.648;2022-10-30T21:19:57;10.00;99.90
18073;DHT22;9161;47.348;9.648;2022-10-30T21:24:40;9.80;99.90
18073;DHT22;9161;47.348;9.648;2022-10-30T21:29:24;9.80;99.90
18073;DHT22;9161;47.348;9.648;2022-10-30T21:34:13;9.70;99.90
18073;DHT22;9161;47.348;9.648;2022-10-30T21:38:59;9.60;99.90
18073;DHT22;9161;47.348;9.648;2022-10-30T21:43:47;9.50;99.90
18073;DHT22;9161;47.348;9.648;2022-10-30T21:48:31;9.40;99.90
18073;DHT22;9161;47.348;9.648;2022-10-30T21:53:14;9.40;99.90
18073;DHT22;9161;47.348;9.648;2022-10-30T21:57:59;9.30;99.90
18073;DHT22;9161;47.348;9.648;2022-10-30T22:02:43;9.60;99.90
18073;DHT22;9161;47.348;9.648;2022-10-30T22:07:27;9.70;99.90
18073;DHT22;9161;47.348;9.648;2022-10-30T22:12:10;9.60;99.90
18073;DHT22;9161;47.348;9.648;2022-10-30T22:16:55;9.50;99.90
18073;DHT22;9161;47.348;9.648;2022-10-30T22:21:39;9.30;99.90
18073;DHT22;9161;47.348;9.648;2022-10-30T22:26:23;9.20;99.90
18073;DHT22;9161;47.348;9.648;2022-10-30T22:31:10;9.10;99.90
18073;DHT22;9161;47.348;9.648;2022-10-30T22:35:55;9.10;99.90
18073;DHT22;9161;47.348;9.648;2022-10-30T22:40:38;9.00;99.90
18073;DHT22;9161;47.348;9.648;2022-10-30T22:45:22;8.90;99.90
18073;DHT22;9161;47.348;9.648;2022-10-30T22:50:07;9.00;99.90
18073;DHT22;9161;47.348;9.648;2022-10-30T22:54:52;9.00;99.90
18073;DHT22;9161;47.348;9.648;2022-10-30T22:59:35;8.90;99.90
18073;DHT22;9161;47.348;9.648;2022-10-30T23:04:19;8.90;99.90
18073;DHT22;9161;47.348;9.648;2022-10-30T23:09:05;8.80;99.90
18073;DHT22;9161;47.348;9.648;2022-10-30T23:13:50;8.60;99.90
18073;DHT22;9161;47.348;9.648;2022-10-30T23:18:34;8.50;99.90
18073;DHT22;9161;47.348;9.648;2022-10-30T23:23:17;8.60;99.90
18073;DHT22;9161;47.348;9.648;2022-10-30T23:28:01;8.60;99.90
18073;DHT22;9161;47.348;9.648;2022-10-30T23:32:48;8.60;99.90
18073;DHT22;9161;47.348;9.648;2022-10-30T23:37:31;8.60;99.90
18073;DHT22;9161;47.348;9.648;2022-10-30T23:42:15;8.40;99.90
18073;DHT22;9161;47.348;9.648;2022-10-30T23:46:58;8.30;99.90
18073;DHT22;9161;47.348;9.648;2022-10-30T23:51:43;8.40;99.90
18073;DHT22;9161;47.348;9.648;2022-10-30T23:56:27;8.60;99.90
